Sunday, August 22, 2010

The Pattern Continues

The pattern of which I took note in the previous post continues - uneventful Friday evenings and rather more interesting Monday mornings. Friday was utterly uneventful; as for tomorrow, well here's the 12Z forecast map:

The terminal area forecast (TAF) for Bridgeport (KBDR) for the expected time of arrival - about 1345Z tomorrow morning - looks like this:

KBDR 222218Z 2222/2318 13012G20KT 6SM -RA SCT015 OVC035
TEMPO 2222/2224 4SM RA BR BKN015 OVC030
FM230400 09012KT 3SM RA BR OVC010
FM230800 07012KT 5SM -RA BR OVC010
FM231100 07014KT 6SM -SHRA BR OVC015
FM231400 07015G22KT 6SM -SHRA BR BKN015 OVC020

Six statute miles visibility in light rain showers under a 1500 foot overcast, trending to 2000. Wind of 15 knots or so from the northeast, becoming gusty but closely aligned with Runway 6. I suspect that the ILS 6 approach will be on offer.

No comments: